createdAt,value
2023-05-22T00:01:15.057Z,14.68
2023-05-22T00:03:42.074Z,14.67
2023-05-22T00:06:10.434Z,14.66
2023-05-22T00:08:37.546Z,14.59
2023-05-22T00:11:05.223Z,14.57
2023-05-22T00:13:32.217Z,14.54
2023-05-22T00:15:59.226Z,14.55
2023-05-22T00:18:27.322Z,14.53
2023-05-22T00:20:54.499Z,14.46
2023-05-22T00:23:22.195Z,14.51
2023-05-22T00:25:50.814Z,14.55
2023-05-22T00:28:17.883Z,14.56
2023-05-22T00:30:45.904Z,14.48
2023-05-22T00:33:13.090Z,14.54
2023-05-22T00:35:40.036Z,14.50
2023-05-22T00:38:08.280Z,14.44
2023-05-22T00:40:35.573Z,14.38
2023-05-22T00:43:08.523Z,14.36
2023-05-22T00:45:35.970Z,14.28
2023-05-22T00:48:03.046Z,14.28
2023-05-22T00:50:30.134Z,14.25
2023-05-22T00:52:57.175Z,14.24
2023-05-22T00:55:24.434Z,14.17
2023-05-22T00:57:52.455Z,14.13
2023-05-22T01:00:20.636Z,14.13
2023-05-22T01:02:48.185Z,14.05
2023-05-22T01:05:18.346Z,14.04
2023-05-22T01:07:46.647Z,14.06
2023-05-22T01:10:13.813Z,14.01
2023-05-22T01:12:52.992Z,14.04
2023-05-22T01:15:39.691Z,14.06
2023-05-22T01:18:30.411Z,14.06
2023-05-22T01:21:18.478Z,14.04
2023-05-22T01:24:25.814Z,14.05
2023-05-22T01:27:26.264Z,14.06
2023-05-22T01:29:59.362Z,14.02
2023-05-22T01:32:29.236Z,14.03
2023-05-22T01:35:01.695Z,14.03
2023-05-22T01:37:29.740Z,13.99
2023-05-22T01:39:58.057Z,13.96
2023-05-22T01:42:25.749Z,14.03
2023-05-22T01:44:54.343Z,14.05
2023-05-22T01:47:23.459Z,14.00
2023-05-22T01:49:52.273Z,13.95
2023-05-22T01:52:29.089Z,13.97
2023-05-22T01:55:10.329Z,13.98
2023-05-22T01:57:45.957Z,13.96
2023-05-22T02:00:15.478Z,14.00
2023-05-22T02:02:49.656Z,13.92
2023-05-22T02:05:22.478Z,13.93
2023-05-22T02:07:50.500Z,13.89
2023-05-22T02:10:20.817Z,13.86
2023-05-22T02:12:48.530Z,13.85
2023-05-22T02:15:16.443Z,13.85
2023-05-22T02:17:45.747Z,13.79
2023-05-22T02:20:15.844Z,13.75
2023-05-22T02:22:45.358Z,13.74
2023-05-22T02:25:17.452Z,13.69
2023-05-22T02:27:47.644Z,13.63
2023-05-22T02:30:15.776Z,13.57
2023-05-22T02:32:45.262Z,13.52
2023-05-22T02:35:12.681Z,13.49
2023-05-22T02:37:39.923Z,13.43
2023-05-22T02:40:07.976Z,13.47
2023-05-22T02:42:35.348Z,13.51
2023-05-22T02:45:03.149Z,13.51
2023-05-22T02:47:30.495Z,13.53
2023-05-22T02:50:00.237Z,13.51
2023-05-22T02:52:28.560Z,13.50
2023-05-22T02:54:55.824Z,13.48
2023-05-22T02:57:23.838Z,13.42
2023-05-22T02:59:51.335Z,13.41
2023-05-22T03:02:18.708Z,13.40
2023-05-22T03:04:46.566Z,13.46
2023-05-22T03:07:13.599Z,13.55
2023-05-22T03:09:40.640Z,13.57
2023-05-22T03:12:08.216Z,13.60
2023-05-22T03:14:35.546Z,13.60
2023-05-22T03:17:02.759Z,13.59
2023-05-22T03:19:30.074Z,13.54
2023-05-22T03:21:57.721Z,13.59
2023-05-22T03:24:24.811Z,13.64
2023-05-22T03:26:52.119Z,13.70
2023-05-22T03:29:26.872Z,13.72
2023-05-22T03:31:54.818Z,13.73
2023-05-22T03:34:22.920Z,13.74
2023-05-22T03:36:50.138Z,13.79
2023-05-22T03:39:17.702Z,13.82
2023-05-22T03:41:53.954Z,13.85
2023-05-22T03:44:21.089Z,13.89
2023-05-22T03:46:48.198Z,13.95
2023-05-22T03:49:15.703Z,14.04
2023-05-22T03:51:42.683Z,14.08
2023-05-22T03:54:09.685Z,14.16
2023-05-22T03:56:36.731Z,14.21
2023-05-22T03:59:03.810Z,14.25
2023-05-22T04:01:31.206Z,14.32
2023-05-22T04:03:58.210Z,14.39
2023-05-22T04:06:25.787Z,14.43
2023-05-22T04:08:52.869Z,14.47
2023-05-22T04:11:21.163Z,14.53
2023-05-22T04:13:51.109Z,14.51
2023-05-22T04:16:18.397Z,14.56
2023-05-22T04:18:45.602Z,14.65
2023-05-22T04:21:12.905Z,14.77
2023-05-22T04:23:43.406Z,14.88
2023-05-22T04:26:10.517Z,15.01
2023-05-22T04:28:38.119Z,15.14
2023-05-22T04:31:06.836Z,15.29
2023-05-22T04:33:34.901Z,15.42
2023-05-22T04:36:02.975Z,15.55
2023-05-22T04:38:30.145Z,15.63
2023-05-22T04:40:58.443Z,15.67
2023-05-22T04:43:26.876Z,15.75
2023-05-22T04:45:55.107Z,15.83
2023-05-22T04:48:24.900Z,15.87
2023-05-22T04:50:52.332Z,15.91
2023-05-22T04:53:19.418Z,16.00
2023-05-22T04:55:46.465Z,16.09
2023-05-22T04:58:13.550Z,16.17
2023-05-22T05:00:40.840Z,16.25
2023-05-22T05:03:08.585Z,16.35
2023-05-22T05:05:35.783Z,16.43
2023-05-22T05:08:02.971Z,16.51
2023-05-22T05:10:30.079Z,16.63
2023-05-22T05:12:57.232Z,16.70
2023-05-22T05:15:24.362Z,16.75
2023-05-22T05:17:51.615Z,16.85
2023-05-22T05:20:18.800Z,16.96
2023-05-22T05:22:46.549Z,17.00
2023-05-22T05:25:15.233Z,17.06
2023-05-22T05:27:42.637Z,17.08
2023-05-22T05:30:10.949Z,17.15
2023-05-22T05:32:58.383Z,17.21
2023-05-22T05:35:44.068Z,17.28
2023-05-22T05:38:13.284Z,17.38
2023-05-22T05:40:43.948Z,17.45
2023-05-22T05:43:15.374Z,17.52
2023-05-22T05:45:44.032Z,17.60
2023-05-22T05:48:12.308Z,17.63
2023-05-22T05:50:43.348Z,17.75
2023-05-22T05:53:10.610Z,17.81
2023-05-22T05:55:38.940Z,17.87
2023-05-22T05:58:06.026Z,17.96
2023-05-22T06:00:45.138Z,18.07
2023-05-22T06:03:12.433Z,18.16
2023-05-22T06:06:03.671Z,18.25
2023-05-22T06:08:49.215Z,18.32
2023-05-22T06:11:16.591Z,18.38
2023-05-22T06:13:53.487Z,18.46
2023-05-22T06:16:20.593Z,18.51
2023-05-22T06:18:48.640Z,18.63
2023-05-22T06:21:16.191Z,18.75
2023-05-22T06:23:43.304Z,18.87
2023-05-22T06:26:11.372Z,19.04
2023-05-22T06:28:40.823Z,19.24
2023-05-22T06:31:10.026Z,19.48
2023-05-22T06:33:40.970Z,19.69
2023-05-22T06:36:09.083Z,19.88
2023-05-22T06:38:38.130Z,20.10
2023-05-22T06:41:08.206Z,20.27
2023-05-22T06:43:35.914Z,20.37
2023-05-22T06:46:12.932Z,20.60
2023-05-22T06:49:00.259Z,20.78
2023-05-22T06:51:35.519Z,20.94
2023-05-22T06:54:09.621Z,21.12
2023-05-22T06:56:37.614Z,21.27
2023-05-22T06:59:11.966Z,21.43
2023-05-22T07:01:48.301Z,21.62
2023-05-22T07:04:20.438Z,21.73
2023-05-22T07:06:57.278Z,21.82
2023-05-22T07:09:24.551Z,21.95
2023-05-22T07:11:51.762Z,21.97
2023-05-22T07:14:18.849Z,22.07
2023-05-22T07:16:46.473Z,22.24
2023-05-22T07:19:19.613Z,22.41
2023-05-22T07:21:46.889Z,22.58
2023-05-22T07:24:17.796Z,22.74
2023-05-22T07:26:46.673Z,22.91
2023-05-22T07:29:14.622Z,23.05
2023-05-22T07:31:42.654Z,23.26
2023-05-22T07:34:11.146Z,23.42
2023-05-22T07:36:38.782Z,23.54
2023-05-22T07:39:06.985Z,23.68
2023-05-22T07:41:39.093Z,23.72
2023-05-22T07:44:08.001Z,23.73
2023-05-22T07:46:38.473Z,23.72
2023-05-22T07:49:19.838Z,23.76
2023-05-22T07:51:48.113Z,23.89
2023-05-22T07:54:16.694Z,23.99
2023-05-22T07:56:46.164Z,24.13
2023-05-22T07:59:16.528Z,24.25
2023-05-22T08:01:43.661Z,24.22
2023-05-22T08:04:11.114Z,24.17
2023-05-22T08:06:39.745Z,24.12
2023-05-22T08:09:06.823Z,24.13
2023-05-22T08:11:34.345Z,24.20
2023-05-22T08:14:01.424Z,24.21
2023-05-22T08:16:28.576Z,24.10
2023-05-22T08:18:55.684Z,24.11
2023-05-22T08:21:22.820Z,24.14
2023-05-22T08:23:49.837Z,24.16
2023-05-22T08:26:16.919Z,24.12
2023-05-22T08:28:44.586Z,24.21
2023-05-22T08:31:12.444Z,24.32
2023-05-22T08:33:40.099Z,24.44
2023-05-22T08:36:07.424Z,24.42
2023-05-22T08:38:34.848Z,24.49
2023-05-22T08:41:02.416Z,24.56
2023-05-22T08:43:29.794Z,24.63
2023-05-22T08:46:03.543Z,24.61
2023-05-22T08:48:34.711Z,24.61
2023-05-22T08:51:04.850Z,24.77
2023-05-22T08:53:35.856Z,24.90
2023-05-22T08:56:06.934Z,24.87
2023-05-22T08:58:37.924Z,24.95
2023-05-22T09:01:06.596Z,24.71
2023-05-22T09:03:37.058Z,24.45
2023-05-22T09:06:04.751Z,24.64
2023-05-22T09:08:32.013Z,24.98
2023-05-22T09:10:59.070Z,25.01
2023-05-22T09:13:28.351Z,24.75
2023-05-22T09:16:11.927Z,24.62
2023-05-22T09:18:40.131Z,24.55
2023-05-22T09:21:21.421Z,24.51
2023-05-22T09:23:55.263Z,24.47
2023-05-22T09:26:22.640Z,24.63
2023-05-22T09:28:49.675Z,24.88
2023-05-22T09:31:17.049Z,24.93
2023-05-22T09:33:44.487Z,25.28
2023-05-22T09:36:11.909Z,25.37
2023-05-22T09:38:39.631Z,25.38
2023-05-22T09:41:06.757Z,25.42
2023-05-22T09:43:33.988Z,25.41
2023-05-22T09:46:02.477Z,25.34
2023-05-22T09:48:29.816Z,25.38
2023-05-22T09:51:00.178Z,25.36
2023-05-22T09:53:29.078Z,25.38
2023-05-22T09:56:00.430Z,25.52
2023-05-22T09:58:31.325Z,25.81
2023-05-22T10:00:59.493Z,25.93
2023-05-22T10:03:27.831Z,25.93
2023-05-22T10:05:57.022Z,25.91
2023-05-22T10:08:36.790Z,25.90
2023-05-22T10:11:06.417Z,25.98
2023-05-22T10:13:36.383Z,26.09
2023-05-22T10:16:05.090Z,26.29
2023-05-22T10:18:32.407Z,26.37
2023-05-22T10:21:00.326Z,26.40
2023-05-22T10:23:28.742Z,26.47
2023-05-22T10:25:56.482Z,26.48
2023-05-22T10:28:40.816Z,26.48
2023-05-22T10:31:19.144Z,26.44
2023-05-22T10:34:11.506Z,26.01
2023-05-22T10:37:00.404Z,25.96
2023-05-22T10:40:02.104Z,26.08
2023-05-22T10:42:32.481Z,25.99
2023-05-22T10:45:01.308Z,25.89
2023-05-22T10:47:28.435Z,25.91
2023-05-22T10:50:07.441Z,25.82
2023-05-22T10:52:35.689Z,25.83
2023-05-22T10:55:08.230Z,25.91
2023-05-22T10:57:38.502Z,26.02
2023-05-22T11:00:11.091Z,26.14
2023-05-22T11:02:43.518Z,26.17
2023-05-22T11:05:18.642Z,26.11
2023-05-22T11:07:45.777Z,26.09
2023-05-22T11:10:12.743Z,26.16
2023-05-22T11:12:41.667Z,26.20
2023-05-22T11:15:10.733Z,26.16
2023-05-22T11:17:42.728Z,26.25
2023-05-22T11:20:21.244Z,26.35
2023-05-22T11:22:50.743Z,26.46
2023-05-22T11:25:19.258Z,26.41
2023-05-22T11:27:48.534Z,26.44
2023-05-22T11:30:17.505Z,26.48
2023-05-22T11:32:46.047Z,26.56
2023-05-22T11:35:18.530Z,26.59
2023-05-22T11:37:46.498Z,26.57
2023-05-22T11:40:19.006Z,26.44
2023-05-22T11:42:46.683Z,26.35
2023-05-22T11:45:14.385Z,26.21
2023-05-22T11:47:42.267Z,26.06
2023-05-22T11:50:10.367Z,26.12
2023-05-22T11:52:41.499Z,26.21
2023-05-22T11:55:10.082Z,26.22
2023-05-22T11:57:38.442Z,26.14
2023-05-22T12:00:08.736Z,26.08
2023-05-22T12:02:39.517Z,26.00
2023-05-22T12:05:10.330Z,26.06
2023-05-22T12:07:37.908Z,26.01
2023-05-22T12:10:07.540Z,25.97
2023-05-22T12:12:34.716Z,25.95
2023-05-22T12:15:04.914Z,25.97
2023-05-22T12:17:31.774Z,25.95
2023-05-22T12:19:59.296Z,26.07
2023-05-22T12:22:29.896Z,26.04
2023-05-22T12:24:57.005Z,25.93
2023-05-22T12:27:24.217Z,25.62
2023-05-22T12:29:53.025Z,25.55
2023-05-22T12:32:22.260Z,25.55
2023-05-22T12:34:50.529Z,25.61
2023-05-22T12:37:28.389Z,25.72
2023-05-22T12:39:56.540Z,25.73
2023-05-22T12:42:25.053Z,25.71
2023-05-22T12:44:58.283Z,25.65
2023-05-22T12:47:25.963Z,25.64
2023-05-22T12:49:53.558Z,25.64
2023-05-22T12:52:20.621Z,25.69
2023-05-22T12:54:47.778Z,25.76
2023-05-22T12:57:17.020Z,25.85
2023-05-22T12:59:44.159Z,25.91
2023-05-22T13:02:11.597Z,25.89
2023-05-22T13:04:38.820Z,25.82
2023-05-22T13:07:06.095Z,25.75
2023-05-22T13:09:33.158Z,25.62
2023-05-22T13:12:00.489Z,25.49
2023-05-22T13:14:27.617Z,25.39
2023-05-22T13:16:54.680Z,25.31
2023-05-22T13:19:21.779Z,25.27
2023-05-22T13:21:48.898Z,25.27
2023-05-22T13:24:15.913Z,25.29
2023-05-22T13:26:42.943Z,25.27
2023-05-22T13:29:10.124Z,25.23
2023-05-22T13:31:38.114Z,25.19
2023-05-22T13:34:05.669Z,25.22
2023-05-22T13:36:34.565Z,25.13
2023-05-22T13:39:01.889Z,25.17
2023-05-22T13:41:29.134Z,25.24
2023-05-22T13:43:56.345Z,25.25
2023-05-22T13:46:23.508Z,25.24
2023-05-22T13:48:50.700Z,25.23
2023-05-22T13:51:17.900Z,25.15
2023-05-22T13:53:45.104Z,25.02
2023-05-22T13:56:12.306Z,24.97
2023-05-22T13:58:39.573Z,24.98
2023-05-22T14:01:06.719Z,24.96
2023-05-22T14:03:34.153Z,24.91
2023-05-22T14:06:01.861Z,24.81
2023-05-22T14:08:28.919Z,24.72
2023-05-22T14:10:56.052Z,24.65
2023-05-22T14:13:23.268Z,24.59
2023-05-22T14:15:50.460Z,24.56
2023-05-22T14:18:17.704Z,24.55
2023-05-22T14:20:46.001Z,24.57
2023-05-22T14:23:14.116Z,24.51
2023-05-22T14:25:43.288Z,24.53
2023-05-22T14:28:14.226Z,24.53
2023-05-22T14:30:41.531Z,24.52
2023-05-22T14:33:08.661Z,24.49
2023-05-22T14:35:35.799Z,24.43
2023-05-22T14:38:02.841Z,24.45
2023-05-22T14:40:29.929Z,24.43
2023-05-22T14:42:57.025Z,24.32
2023-05-22T14:45:24.183Z,24.27
2023-05-22T14:47:51.410Z,24.25
2023-05-22T14:50:20.208Z,24.23
2023-05-22T14:52:49.399Z,24.16
2023-05-22T14:55:17.588Z,24.15
2023-05-22T14:57:44.827Z,24.10
2023-05-22T15:00:12.771Z,24.04
2023-05-22T15:02:42.935Z,24.00
2023-05-22T15:05:10.508Z,23.96
2023-05-22T15:10:09.089Z,23.93
2023-05-22T15:12:36.394Z,23.93
2023-05-22T15:15:03.578Z,23.90
2023-05-22T15:17:30.625Z,23.84
2023-05-22T15:19:57.736Z,23.87
2023-05-22T15:22:24.851Z,23.87
2023-05-22T15:25:15.474Z,23.84
2023-05-22T15:27:43.953Z,23.83
2023-05-22T15:30:12.462Z,23.80
2023-05-22T15:32:39.947Z,23.79
2023-05-22T15:35:07.659Z,23.79
2023-05-22T15:37:36.694Z,23.71
2023-05-22T15:40:04.684Z,23.71
2023-05-22T15:42:32.049Z,23.70
2023-05-22T15:45:00.177Z,23.66
2023-05-22T15:47:27.611Z,23.64
2023-05-22T15:49:54.749Z,23.64
2023-05-22T15:52:24.595Z,23.61
2023-05-22T15:54:51.799Z,23.58
2023-05-22T15:57:18.886Z,23.56
2023-05-22T15:59:47.526Z,23.50
2023-05-22T16:02:14.939Z,23.49
2023-05-22T16:04:42.175Z,23.43
2023-05-22T16:07:09.308Z,23.44
2023-05-22T16:09:36.657Z,23.42
2023-05-22T16:12:04.284Z,23.35
2023-05-22T16:14:31.861Z,23.34
2023-05-22T16:16:59.273Z,23.32
2023-05-22T16:19:28.730Z,23.26
2023-05-22T16:21:56.065Z,23.23
2023-05-22T16:24:23.121Z,23.22
2023-05-22T16:26:50.478Z,23.18
2023-05-22T16:29:21.303Z,23.16
2023-05-22T16:31:48.611Z,23.10
2023-05-22T16:34:15.939Z,23.04
2023-05-22T16:36:43.120Z,23.00
2023-05-22T16:39:10.647Z,22.95
2023-05-22T16:41:38.072Z,22.95
2023-05-22T16:44:05.234Z,22.90
2023-05-22T16:46:32.391Z,22.88
2023-05-22T16:48:59.500Z,22.85
2023-05-22T16:51:26.630Z,22.80
2023-05-22T16:53:53.652Z,22.78
2023-05-22T16:56:21.258Z,22.75
2023-05-22T16:58:48.542Z,22.72
2023-05-22T17:01:15.990Z,22.71
2023-05-22T17:03:43.266Z,22.67
2023-05-22T17:06:10.449Z,22.64
2023-05-22T17:08:37.834Z,22.60
2023-05-22T17:11:04.985Z,22.52
2023-05-22T17:13:32.187Z,22.52
2023-05-22T17:15:59.347Z,22.49
2023-05-22T17:18:26.500Z,22.46
2023-05-22T17:20:56.648Z,22.42
2023-05-22T17:23:23.975Z,22.39
2023-05-22T17:25:51.446Z,22.32
2023-05-22T17:28:18.655Z,22.27
2023-05-22T17:30:46.349Z,22.22
2023-05-22T17:33:14.248Z,22.22
2023-05-22T17:35:41.971Z,22.14
2023-05-22T17:38:09.380Z,22.11
2023-05-22T17:40:44.670Z,22.04
2023-05-22T17:43:13.896Z,22.03
2023-05-22T17:45:42.011Z,21.96
2023-05-22T17:48:10.146Z,21.93
2023-05-22T17:50:38.105Z,21.87
2023-05-22T17:53:05.299Z,21.77
2023-05-22T17:55:32.301Z,21.75
2023-05-22T17:57:59.917Z,21.72
2023-05-22T18:00:27.004Z,21.65
2023-05-22T18:02:54.160Z,21.59
2023-05-22T18:05:21.338Z,21.51
2023-05-22T18:07:48.549Z,21.44
2023-05-22T18:10:15.719Z,21.39
2023-05-22T18:12:42.813Z,21.32
2023-05-22T18:15:12.364Z,21.23
2023-05-22T18:17:40.212Z,21.19
2023-05-22T18:20:08.704Z,21.14
2023-05-22T18:22:39.228Z,21.08
2023-05-22T18:25:07.415Z,21.01
2023-05-22T18:27:36.226Z,20.95
2023-05-22T18:30:04.721Z,20.88
2023-05-22T18:32:32.389Z,20.80
2023-05-22T18:35:00.263Z,20.73
2023-05-22T18:37:27.388Z,20.66
2023-05-22T18:39:54.541Z,20.60
2023-05-22T18:42:21.669Z,20.54
2023-05-22T18:44:49.729Z,20.41
2023-05-22T18:47:17.184Z,20.28
2023-05-22T18:49:44.420Z,20.24
2023-05-22T18:52:11.505Z,20.18
2023-05-22T18:54:38.588Z,20.11
2023-05-22T18:57:05.903Z,20.02
2023-05-22T18:59:33.058Z,19.99
2023-05-22T19:02:00.298Z,19.85
2023-05-22T19:04:27.564Z,19.83
2023-05-22T19:06:54.651Z,19.76
2023-05-22T19:09:22.364Z,19.76
2023-05-22T19:11:49.458Z,19.72
2023-05-22T19:14:16.643Z,19.64
2023-05-22T19:16:44.154Z,19.59
2023-05-22T19:19:11.824Z,19.51
2023-05-22T19:21:39.262Z,19.44
2023-05-22T19:24:07.015Z,19.41
2023-05-22T19:26:34.091Z,19.36
2023-05-22T19:29:01.252Z,19.30
2023-05-22T19:31:28.972Z,19.20
2023-05-22T19:33:56.301Z,19.17
2023-05-22T19:36:23.424Z,19.16
2023-05-22T19:38:51.876Z,19.13
2023-05-22T19:41:20.717Z,19.09
2023-05-22T19:43:47.757Z,19.04
2023-05-22T19:46:14.921Z,19.00
2023-05-22T19:48:41.952Z,18.96
2023-05-22T19:51:09.064Z,18.92
2023-05-22T19:53:36.723Z,18.87
2023-05-22T19:56:04.130Z,18.78
2023-05-22T19:58:31.204Z,18.80
2023-05-22T20:00:58.268Z,18.76
2023-05-22T20:03:26.504Z,18.72
2023-05-22T20:05:53.916Z,18.69
2023-05-22T20:08:25.699Z,18.57
2023-05-22T20:10:53.137Z,18.57
2023-05-22T20:13:20.252Z,18.53
2023-05-22T20:15:47.969Z,18.50
2023-05-22T20:18:15.269Z,18.48
2023-05-22T20:20:42.405Z,18.44
2023-05-22T20:23:09.551Z,18.37
2023-05-22T20:25:37.955Z,18.34
2023-05-22T20:28:05.221Z,18.29
2023-05-22T20:30:32.824Z,18.25
2023-05-22T20:32:59.950Z,18.20
2023-05-22T20:35:27.088Z,18.16
2023-05-22T20:37:54.257Z,18.18
2023-05-22T20:40:21.944Z,18.16
2023-05-22T20:42:49.364Z,18.08
2023-05-22T20:45:17.641Z,18.06
2023-05-22T20:47:44.987Z,18.02
2023-05-22T20:50:12.422Z,17.93
2023-05-22T20:52:39.633Z,17.92
2023-05-22T20:55:07.538Z,17.83
2023-05-22T20:57:34.804Z,17.75
2023-05-22T21:00:01.956Z,17.67
2023-05-22T21:02:28.878Z,17.71
2023-05-22T21:04:56.255Z,17.66
2023-05-22T21:07:23.436Z,17.60
2023-05-22T21:09:50.467Z,17.59
2023-05-22T21:12:17.556Z,17.49
2023-05-22T21:14:44.691Z,17.46
2023-05-22T21:17:11.832Z,17.39
2023-05-22T21:19:38.996Z,17.34
2023-05-22T21:22:06.085Z,17.30
2023-05-22T21:24:33.287Z,17.18
2023-05-22T21:27:00.802Z,17.19
2023-05-22T21:29:27.992Z,17.12
2023-05-22T21:31:54.976Z,17.02
2023-05-22T21:34:21.983Z,16.99
2023-05-22T21:36:49.940Z,16.94
2023-05-22T21:39:17.204Z,16.87
2023-05-22T21:41:44.379Z,16.83
2023-05-22T21:44:11.522Z,16.80
2023-05-22T21:46:38.780Z,16.74
2023-05-22T21:49:06.412Z,16.67
2023-05-22T21:51:33.586Z,16.64
2023-05-22T21:54:00.554Z,16.62
2023-05-22T21:56:27.806Z,16.58
2023-05-22T21:58:55.033Z,16.67
2023-05-22T22:01:22.285Z,16.57
2023-05-22T22:03:49.486Z,16.58
2023-05-22T22:06:16.755Z,16.53
2023-05-22T22:08:43.756Z,16.48
2023-05-22T22:11:10.838Z,16.40
2023-05-22T22:13:37.881Z,16.37
2023-05-22T22:16:05.096Z,16.35
2023-05-22T22:18:37.122Z,16.26
2023-05-22T22:21:04.753Z,16.31
2023-05-22T22:23:31.734Z,16.26
2023-05-22T22:25:58.818Z,16.26
2023-05-22T22:28:25.801Z,16.25
2023-05-22T22:30:55.269Z,16.27
2023-05-22T22:33:22.984Z,16.27
2023-05-22T22:35:50.318Z,16.30
2023-05-22T22:38:17.435Z,16.32
2023-05-22T22:40:44.541Z,16.37
2023-05-22T22:43:11.612Z,16.40
2023-05-22T22:45:40.213Z,16.40
2023-05-22T22:48:07.502Z,16.36
2023-05-22T22:50:34.712Z,16.37
2023-05-22T22:53:01.813Z,16.31
2023-05-22T22:55:29.011Z,16.31
2023-05-22T22:57:56.368Z,16.34
2023-05-22T23:00:23.803Z,16.38
2023-05-22T23:02:51.054Z,16.37
2023-05-22T23:05:20.520Z,16.31
2023-05-22T23:07:48.314Z,16.28
2023-05-22T23:10:15.883Z,16.25
2023-05-22T23:12:43.142Z,16.23
2023-05-22T23:15:11.439Z,16.25
2023-05-22T23:17:38.683Z,16.21
2023-05-22T23:20:06.465Z,16.23
2023-05-22T23:22:33.505Z,16.28
2023-05-22T23:25:00.630Z,16.29
2023-05-22T23:27:27.652Z,16.30
2023-05-22T23:29:54.622Z,16.33
2023-05-22T23:32:22.459Z,16.32
2023-05-22T23:34:49.663Z,16.34
2023-05-22T23:37:16.749Z,16.29
2023-05-22T23:39:43.697Z,16.35
2023-05-22T23:42:11.221Z,16.36
2023-05-22T23:44:38.387Z,16.31
2023-05-22T23:47:06.726Z,16.33
2023-05-22T23:49:34.071Z,16.28
2023-05-22T23:52:01.075Z,16.29
2023-05-22T23:54:28.055Z,16.26
2023-05-22T23:56:55.046Z,16.22
2023-05-22T23:59:22.325Z,16.23
